sensor_id;sensor_type;location;lat;lon;timestamp;P1;durP1;ratioP1;P2;durP2;ratioP2
76115;SDS011;64847;45.778;12.802;2023-08-21T00:02:20;8.90;;;8.15;;
76115;SDS011;64847;45.778;12.802;2023-08-21T00:04:46;8.15;;;7.47;;
76115;SDS011;64847;45.778;12.802;2023-08-21T00:07:12;9.02;;;8.43;;
76115;SDS011;64847;45.778;12.802;2023-08-21T00:09:37;7.47;;;6.97;;
76115;SDS011;64847;45.778;12.802;2023-08-21T00:12:03;8.45;;;7.85;;
76115;SDS011;64847;45.778;12.802;2023-08-21T00:14:29;8.50;;;7.90;;
76115;SDS011;64847;45.778;12.802;2023-08-21T00:16:54;8.30;;;7.80;;
76115;SDS011;64847;45.778;12.802;2023-08-21T00:19:19;8.07;;;7.43;;
76115;SDS011;64847;45.778;12.802;2023-08-21T00:21:45;8.18;;;7.68;;
76115;SDS011;64847;45.778;12.802;2023-08-21T00:24:10;8.10;;;7.60;;
76115;SDS011;64847;45.778;12.802;2023-08-21T00:26:36;7.82;;;7.22;;
76115;SDS011;64847;45.778;12.802;2023-08-21T00:29:01;8.23;;;7.68;;
76115;SDS011;64847;45.778;12.802;2023-08-21T00:31:27;8.40;;;7.80;;
76115;SDS011;64847;45.778;12.802;2023-08-21T00:33:52;8.13;;;7.63;;
76115;SDS011;64847;45.778;12.802;2023-08-21T00:36:17;9.00;;;8.40;;
76115;SDS011;64847;45.778;12.802;2023-08-21T00:38:44;7.88;;;7.28;;
76115;SDS011;64847;45.778;12.802;2023-08-21T00:41:10;7.82;;;7.22;;
76115;SDS011;64847;45.778;12.802;2023-08-21T00:43:35;7.93;;;7.43;;
76115;SDS011;64847;45.778;12.802;2023-08-21T00:46:01;8.05;;;7.45;;
76115;SDS011;64847;45.778;12.802;2023-08-21T00:48:27;7.97;;;7.38;;
76115;SDS011;64847;45.778;12.802;2023-08-21T00:50:53;7.80;;;7.22;;
76115;SDS011;64847;45.778;12.802;2023-08-21T00:53:18;8.43;;;7.82;;
76115;SDS011;64847;45.778;12.802;2023-08-21T00:55:44;8.07;;;7.53;;
76115;SDS011;64847;45.778;12.802;2023-08-21T00:58:10;7.90;;;7.38;;
76115;SDS011;64847;45.778;12.802;2023-08-21T01:00:37;7.88;;;7.28;;
76115;SDS011;64847;45.778;12.802;2023-08-21T01:03:02;7.82;;;7.22;;
76115;SDS011;64847;45.778;12.802;2023-08-21T01:05:28;7.88;;;7.20;;
76115;SDS011;64847;45.778;12.802;2023-08-21T01:07:57;7.70;;;7.13;;
76115;SDS011;64847;45.778;12.802;2023-08-21T01:10:34;7.47;;;6.97;;
76115;SDS011;64847;45.778;12.802;2023-08-21T01:13:19;6.97;;;6.53;;
76115;SDS011;64847;45.778;12.802;2023-08-21T01:15:58;6.97;;;6.53;;
76115;SDS011;64847;45.778;12.802;2023-08-21T01:18:24;7.85;;;7.25;;
76115;SDS011;64847;45.778;12.802;2023-08-21T01:20:51;8.48;;;7.82;;
76115;SDS011;64847;45.778;12.802;2023-08-21T01:23:33;7.75;;;7.15;;
76115;SDS011;64847;45.778;12.802;2023-08-21T01:26:02;7.65;;;7.05;;
76115;SDS011;64847;45.778;12.802;2023-08-21T01:28:28;7.45;;;6.95;;
76115;SDS011;64847;45.778;12.802;2023-08-21T01:30:57;8.43;;;7.82;;
76115;SDS011;64847;45.778;12.802;2023-08-21T01:33:26;7.80;;;7.30;;
76115;SDS011;64847;45.778;12.802;2023-08-21T01:35:51;6.88;;;6.47;;
76115;SDS011;64847;45.778;12.802;2023-08-21T01:38:17;7.28;;;6.68;;
76115;SDS011;64847;45.778;12.802;2023-08-21T01:40:42;7.60;;;7.07;;
76115;SDS011;64847;45.778;12.802;2023-08-21T01:43:08;7.93;;;7.22;;
76115;SDS011;64847;45.778;12.802;2023-08-21T01:45:33;7.38;;;6.88;;
76115;SDS011;64847;45.778;12.802;2023-08-21T01:47:59;7.20;;;6.70;;
76115;SDS011;64847;45.778;12.802;2023-08-21T01:50:24;7.40;;;6.80;;
76115;SDS011;64847;45.778;12.802;2023-08-21T01:52:49;6.88;;;6.47;;
76115;SDS011;64847;45.778;12.802;2023-08-21T01:55:15;6.45;;;6.05;;
76115;SDS011;64847;45.778;12.802;2023-08-21T01:57:40;6.78;;;6.38;;
76115;SDS011;64847;45.778;12.802;2023-08-21T02:00:07;7.40;;;6.82;;
76115;SDS011;64847;45.778;12.802;2023-08-21T02:02:33;7.72;;;7.13;;
76115;SDS011;64847;45.778;12.802;2023-08-21T02:04:58;6.93;;;6.43;;
76115;SDS011;64847;45.778;12.802;2023-08-21T02:07:24;7.65;;;7.05;;
76115;SDS011;64847;45.778;12.802;2023-08-21T02:09:49;7.78;;;7.10;;
76115;SDS011;64847;45.778;12.802;2023-08-21T02:12:15;7.90;;;7.22;;
76115;SDS011;64847;45.778;12.802;2023-08-21T02:14:40;7.03;;;6.53;;
76115;SDS011;64847;45.778;12.802;2023-08-21T02:17:06;6.75;;;6.35;;
76115;SDS011;64847;45.778;12.802;2023-08-21T02:19:31;6.78;;;6.38;;
76115;SDS011;64847;45.778;12.802;2023-08-21T02:21:56;6.30;;;5.90;;
76115;SDS011;64847;45.778;12.802;2023-08-21T02:24:22;6.20;;;5.88;;
76115;SDS011;64847;45.778;12.802;2023-08-21T02:26:47;7.50;;;7.00;;
76115;SDS011;64847;45.778;12.802;2023-08-21T02:29:13;7.07;;;6.68;;
76115;SDS011;64847;45.778;12.802;2023-08-21T02:31:38;6.82;;;6.43;;
76115;SDS011;64847;45.778;12.802;2023-08-21T02:34:03;6.90;;;6.50;;
76115;SDS011;64847;45.778;12.802;2023-08-21T02:36:29;6.47;;;6.07;;
76115;SDS011;64847;45.778;12.802;2023-08-21T02:38:55;7.13;;;6.65;;
76115;SDS011;64847;45.778;12.802;2023-08-21T02:41:20;7.53;;;7.03;;
76115;SDS011;64847;45.778;12.802;2023-08-21T02:43:46;6.65;;;6.25;;
76115;SDS011;64847;45.778;12.802;2023-08-21T02:46:11;7.53;;;7.03;;
76115;SDS011;64847;45.778;12.802;2023-08-21T02:48:36;8.13;;;7.53;;
76115;SDS011;64847;45.778;12.802;2023-08-21T02:51:02;7.18;;;6.75;;
76115;SDS011;64847;45.778;12.802;2023-08-21T02:53:28;7.18;;;6.72;;
76115;SDS011;64847;45.778;12.802;2023-08-21T02:55:53;7.15;;;6.65;;
76115;SDS011;64847;45.778;12.802;2023-08-21T02:58:19;7.40;;;6.90;;
76115;SDS011;64847;45.778;12.802;2023-08-21T03:00:44;7.13;;;6.65;;
76115;SDS011;64847;45.778;12.802;2023-08-21T03:03:10;6.65;;;6.25;;
76115;SDS011;64847;45.778;12.802;2023-08-21T03:05:36;7.65;;;7.10;;
76115;SDS011;64847;45.778;12.802;2023-08-21T03:08:01;7.22;;;6.78;;
76115;SDS011;64847;45.778;12.802;2023-08-21T03:10:27;6.70;;;6.25;;
76115;SDS011;64847;45.778;12.802;2023-08-21T03:12:54;7.60;;;7.10;;
76115;SDS011;64847;45.778;12.802;2023-08-21T03:15:20;7.03;;;6.53;;
76115;SDS011;64847;45.778;12.802;2023-08-21T03:17:45;7.20;;;6.70;;
76115;SDS011;64847;45.778;12.802;2023-08-21T03:20:10;7.03;;;6.55;;
76115;SDS011;64847;45.778;12.802;2023-08-21T03:22:36;7.22;;;6.65;;
76115;SDS011;64847;45.778;12.802;2023-08-21T03:25:02;7.15;;;6.65;;
76115;SDS011;64847;45.778;12.802;2023-08-21T03:27:27;6.57;;;6.13;;
76115;SDS011;64847;45.778;12.802;2023-08-21T03:29:53;7.65;;;7.05;;
76115;SDS011;64847;45.778;12.802;2023-08-21T03:32:18;6.70;;;6.30;;
76115;SDS011;64847;45.778;12.802;2023-08-21T03:34:44;6.10;;;5.80;;
76115;SDS011;64847;45.778;12.802;2023-08-21T03:37:10;7.30;;;6.80;;
76115;SDS011;64847;45.778;12.802;2023-08-21T03:39:35;6.97;;;6.47;;
76115;SDS011;64847;45.778;12.802;2023-08-21T03:42:01;7.50;;;6.90;;
76115;SDS011;64847;45.778;12.802;2023-08-21T03:44:26;7.45;;;6.95;;
76115;SDS011;64847;45.778;12.802;2023-08-21T03:46:52;6.85;;;6.35;;
76115;SDS011;64847;45.778;12.802;2023-08-21T03:49:17;7.03;;;6.63;;
76115;SDS011;64847;45.778;12.802;2023-08-21T03:51:42;7.47;;;6.97;;
76115;SDS011;64847;45.778;12.802;2023-08-21T03:54:08;6.90;;;6.50;;
76115;SDS011;64847;45.778;12.802;2023-08-21T03:56:34;6.97;;;6.38;;
76115;SDS011;64847;45.778;12.802;2023-08-21T03:58:59;7.35;;;6.85;;
76115;SDS011;64847;45.778;12.802;2023-08-21T04:01:25;6.90;;;6.45;;
76115;SDS011;64847;45.778;12.802;2023-08-21T04:03:50;6.75;;;6.35;;
76115;SDS011;64847;45.778;12.802;2023-08-21T04:06:16;7.03;;;6.63;;
76115;SDS011;64847;45.778;12.802;2023-08-21T04:08:41;7.00;;;6.60;;
76115;SDS011;64847;45.778;12.802;2023-08-21T04:11:06;7.90;;;7.40;;
76115;SDS011;64847;45.778;12.802;2023-08-21T04:13:32;7.53;;;6.65;;
76115;SDS011;64847;45.778;12.802;2023-08-21T04:15:57;7.50;;;7.00;;
76115;SDS011;64847;45.778;12.802;2023-08-21T04:18:23;6.93;;;6.43;;
76115;SDS011;64847;45.778;12.802;2023-08-21T04:20:48;7.35;;;6.90;;
76115;SDS011;64847;45.778;12.802;2023-08-21T04:23:14;7.43;;;6.93;;
76115;SDS011;64847;45.778;12.802;2023-08-21T04:25:39;7.78;;;7.07;;
76115;SDS011;64847;45.778;12.802;2023-08-21T04:28:05;7.72;;;7.22;;
76115;SDS011;64847;45.778;12.802;2023-08-21T04:30:32;7.43;;;6.82;;
76115;SDS011;64847;45.778;12.802;2023-08-21T04:32:58;7.45;;;7.05;;
76115;SDS011;64847;45.778;12.802;2023-08-21T04:35:24;7.32;;;6.78;;
76115;SDS011;64847;45.778;12.802;2023-08-21T04:37:49;7.25;;;6.75;;
76115;SDS011;64847;45.778;12.802;2023-08-21T04:40:15;7.78;;;7.18;;
76115;SDS011;64847;45.778;12.802;2023-08-21T04:42:42;7.28;;;6.72;;
76115;SDS011;64847;45.778;12.802;2023-08-21T04:45:09;7.63;;;7.05;;
76115;SDS011;64847;45.778;12.802;2023-08-21T04:47:34;7.72;;;7.13;;
76115;SDS011;64847;45.778;12.802;2023-08-21T04:50:00;6.95;;;6.45;;
76115;SDS011;64847;45.778;12.802;2023-08-21T04:52:25;7.60;;;7.00;;
76115;SDS011;64847;45.778;12.802;2023-08-21T04:54:51;7.20;;;6.70;;
76115;SDS011;64847;45.778;12.802;2023-08-21T04:57:16;7.03;;;6.55;;
76115;SDS011;64847;45.778;12.802;2023-08-21T04:59:43;7.30;;;6.70;;
76115;SDS011;64847;45.778;12.802;2023-08-21T05:02:09;7.10;;;6.57;;
76115;SDS011;64847;45.778;12.802;2023-08-21T05:04:35;7.57;;;7.03;;
76115;SDS011;64847;45.778;12.802;2023-08-21T05:07:01;7.25;;;6.75;;
76115;SDS011;64847;45.778;12.802;2023-08-21T05:09:27;7.72;;;7.20;;
76115;SDS011;64847;45.778;12.802;2023-08-21T05:11:53;7.18;;;6.57;;
76115;SDS011;64847;45.778;12.802;2023-08-21T05:14:19;7.53;;;6.97;;
76115;SDS011;64847;45.778;12.802;2023-08-21T05:16:45;7.00;;;6.50;;
76115;SDS011;64847;45.778;12.802;2023-08-21T05:19:11;7.65;;;7.10;;
76115;SDS011;64847;45.778;12.802;2023-08-21T05:21:36;7.63;;;7.13;;
76115;SDS011;64847;45.778;12.802;2023-08-21T05:24:02;7.38;;;6.88;;
76115;SDS011;64847;45.778;12.802;2023-08-21T05:26:27;6.72;;;6.30;;
76115;SDS011;64847;45.778;12.802;2023-08-21T05:28:52;6.97;;;6.47;;
76115;SDS011;64847;45.778;12.802;2023-08-21T05:31:18;7.78;;;7.18;;
76115;SDS011;64847;45.778;12.802;2023-08-21T05:33:43;6.70;;;6.30;;
76115;SDS011;64847;45.778;12.802;2023-08-21T05:36:10;7.22;;;6.80;;
76115;SDS011;64847;45.778;12.802;2023-08-21T05:38:35;6.97;;;6.57;;
76115;SDS011;64847;45.778;12.802;2023-08-21T05:41:01;7.05;;;6.50;;
76115;SDS011;64847;45.778;12.802;2023-08-21T05:43:26;6.82;;;6.43;;
76115;SDS011;64847;45.778;12.802;2023-08-21T05:45:52;7.05;;;6.55;;
76115;SDS011;64847;45.778;12.802;2023-08-21T05:48:17;7.35;;;6.75;;
76115;SDS011;64847;45.778;12.802;2023-08-21T05:50:42;6.75;;;6.25;;
76115;SDS011;64847;45.778;12.802;2023-08-21T05:53:08;7.72;;;7.18;;
76115;SDS011;64847;45.778;12.802;2023-08-21T05:55:33;6.93;;;6.53;;
76115;SDS011;64847;45.778;12.802;2023-08-21T05:58:02;7.45;;;6.95;;
76115;SDS011;64847;45.778;12.802;2023-08-21T06:00:27;7.13;;;6.65;;
76115;SDS011;64847;45.778;12.802;2023-08-21T06:02:53;6.80;;;6.40;;
76115;SDS011;64847;45.778;12.802;2023-08-21T06:05:18;7.35;;;6.80;;
76115;SDS011;64847;45.778;12.802;2023-08-21T06:07:43;7.57;;;6.97;;
76115;SDS011;64847;45.778;12.802;2023-08-21T06:10:09;7.00;;;6.60;;
76115;SDS011;64847;45.778;12.802;2023-08-21T06:12:40;8.02;;;7.43;;
76115;SDS011;64847;45.778;12.802;2023-08-21T06:15:06;6.78;;;6.38;;
76115;SDS011;64847;45.778;12.802;2023-08-21T06:17:35;7.30;;;6.78;;
76115;SDS011;64847;45.778;12.802;2023-08-21T06:20:00;7.05;;;6.55;;
76115;SDS011;64847;45.778;12.802;2023-08-21T06:22:26;6.90;;;6.50;;
76115;SDS011;64847;45.778;12.802;2023-08-21T06:24:51;6.57;;;6.18;;
76115;SDS011;64847;45.778;12.802;2023-08-21T06:27:17;6.57;;;6.18;;
76115;SDS011;64847;45.778;12.802;2023-08-21T06:29:42;6.93;;;6.50;;
76115;SDS011;64847;45.778;12.802;2023-08-21T06:32:08;6.43;;;5.93;;
76115;SDS011;64847;45.778;12.802;2023-08-21T06:34:33;7.00;;;6.60;;
76115;SDS011;64847;45.778;12.802;2023-08-21T06:36:58;6.70;;;6.30;;
76115;SDS011;64847;45.778;12.802;2023-08-21T06:39:25;6.60;;;6.10;;
76115;SDS011;64847;45.778;12.802;2023-08-21T06:41:51;5.85;;;5.55;;
76115;SDS011;64847;45.778;12.802;2023-08-21T06:44:16;5.78;;;5.47;;
76115;SDS011;64847;45.778;12.802;2023-08-21T06:46:41;6.30;;;5.90;;
76115;SDS011;64847;45.778;12.802;2023-08-21T06:49:07;5.28;;;4.97;;
76115;SDS011;64847;45.778;12.802;2023-08-21T06:51:32;5.25;;;4.95;;
76115;SDS011;64847;45.778;12.802;2023-08-21T06:53:58;5.20;;;4.90;;
76115;SDS011;64847;45.778;12.802;2023-08-21T06:56:23;5.53;;;5.20;;
76115;SDS011;64847;45.778;12.802;2023-08-21T06:58:49;5.50;;;5.10;;
76115;SDS011;64847;45.778;12.802;2023-08-21T07:01:14;5.53;;;5.22;;
76115;SDS011;64847;45.778;12.802;2023-08-21T07:03:40;4.95;;;4.65;;
76115;SDS011;64847;45.778;12.802;2023-08-21T07:06:05;4.35;;;4.15;;
76115;SDS011;64847;45.778;12.802;2023-08-21T07:08:30;5.80;;;5.28;;
76115;SDS011;64847;45.778;12.802;2023-08-21T07:10:56;5.00;;;4.63;;
76115;SDS011;64847;45.778;12.802;2023-08-21T07:13:21;4.82;;;4.60;;
76115;SDS011;64847;45.778;12.802;2023-08-21T07:15:47;4.82;;;4.53;;
76115;SDS011;64847;45.778;12.802;2023-08-21T07:18:13;4.80;;;4.50;;
76115;SDS011;64847;45.778;12.802;2023-08-21T07:20:38;4.93;;;4.72;;
76115;SDS011;64847;45.778;12.802;2023-08-21T07:23:04;5.00;;;4.57;;
76115;SDS011;64847;45.778;12.802;2023-08-21T07:25:29;4.38;;;4.18;;
76115;SDS011;64847;45.778;12.802;2023-08-21T07:27:55;4.60;;;4.30;;
76115;SDS011;64847;45.778;12.802;2023-08-21T07:30:21;4.38;;;4.07;;
76115;SDS011;64847;45.778;12.802;2023-08-21T07:32:49;4.20;;;4.00;;
76115;SDS011;64847;45.778;12.802;2023-08-21T07:35:15;4.35;;;4.05;;
76115;SDS011;64847;45.778;12.802;2023-08-21T07:37:44;4.57;;;4.38;;
76115;SDS011;64847;45.778;12.802;2023-08-21T07:40:10;4.53;;;4.22;;
76115;SDS011;64847;45.778;12.802;2023-08-21T07:42:35;4.55;;;4.35;;
76115;SDS011;64847;45.778;12.802;2023-08-21T07:45:01;4.40;;;4.20;;
76115;SDS011;64847;45.778;12.802;2023-08-21T07:47:27;4.35;;;4.13;;
76115;SDS011;64847;45.778;12.802;2023-08-21T07:49:53;4.30;;;4.00;;
76115;SDS011;64847;45.778;12.802;2023-08-21T07:52:19;4.28;;;4.00;;
76115;SDS011;64847;45.778;12.802;2023-08-21T07:54:45;4.32;;;4.13;;
76115;SDS011;64847;45.778;12.802;2023-08-21T07:57:10;4.53;;;4.32;;
76115;SDS011;64847;45.778;12.802;2023-08-21T07:59:36;4.45;;;4.20;;
76115;SDS011;64847;45.778;12.802;2023-08-21T08:02:01;4.72;;;4.53;;
76115;SDS011;64847;45.778;12.802;2023-08-21T08:04:28;3.97;;;3.78;;
76115;SDS011;64847;45.778;12.802;2023-08-21T08:06:53;4.20;;;3.97;;
76115;SDS011;64847;45.778;12.802;2023-08-21T08:09:18;4.57;;;4.28;;
76115;SDS011;64847;45.778;12.802;2023-08-21T08:11:44;4.32;;;4.05;;
76115;SDS011;64847;45.778;12.802;2023-08-21T08:14:09;4.25;;;3.95;;
76115;SDS011;64847;45.778;12.802;2023-08-21T08:16:35;4.30;;;4.10;;
76115;SDS011;64847;45.778;12.802;2023-08-21T08:19:00;4.38;;;4.20;;
76115;SDS011;64847;45.778;12.802;2023-08-21T08:21:26;4.43;;;4.20;;
76115;SDS011;64847;45.778;12.802;2023-08-21T08:23:51;4.85;;;4.30;;
76115;SDS011;64847;45.778;12.802;2023-08-21T08:26:16;4.22;;;3.97;;
76115;SDS011;64847;45.778;12.802;2023-08-21T08:28:42;4.30;;;3.97;;
76115;SDS011;64847;45.778;12.802;2023-08-21T08:31:14;5.50;;;4.93;;
76115;SDS011;64847;45.778;12.802;2023-08-21T08:33:40;4.28;;;3.97;;
76115;SDS011;64847;45.778;12.802;2023-08-21T08:36:05;4.68;;;4.38;;
76115;SDS011;64847;45.778;12.802;2023-08-21T08:38:30;5.07;;;4.75;;
76115;SDS011;64847;45.778;12.802;2023-08-21T08:40:56;4.72;;;4.43;;
76115;SDS011;64847;45.778;12.802;2023-08-21T08:43:21;4.65;;;4.30;;
76115;SDS011;64847;45.778;12.802;2023-08-21T08:45:49;4.93;;;4.72;;
76115;SDS011;64847;45.778;12.802;2023-08-21T08:48:15;4.50;;;4.30;;
76115;SDS011;64847;45.778;12.802;2023-08-21T08:50:41;4.80;;;4.43;;
76115;SDS011;64847;45.778;12.802;2023-08-21T08:53:07;4.93;;;4.60;;
76115;SDS011;64847;45.778;12.802;2023-08-21T08:55:33;4.15;;;3.95;;
76115;SDS011;64847;45.778;12.802;2023-08-21T08:57:58;5.00;;;4.70;;
76115;SDS011;64847;45.778;12.802;2023-08-21T09:00:24;4.47;;;4.18;;
76115;SDS011;64847;45.778;12.802;2023-08-21T09:02:50;4.38;;;4.05;;
76115;SDS011;64847;45.778;12.802;2023-08-21T09:05:17;4.15;;;3.95;;
76115;SDS011;64847;45.778;12.802;2023-08-21T09:07:42;4.63;;;4.32;;
76115;SDS011;64847;45.778;12.802;2023-08-21T09:10:16;4.07;;;3.85;;
76115;SDS011;64847;45.778;12.802;2023-08-21T09:12:44;4.30;;;4.00;;
76115;SDS011;64847;45.778;12.802;2023-08-21T09:15:10;4.90;;;4.50;;
76115;SDS011;64847;45.778;12.802;2023-08-21T09:17:36;4.30;;;4.10;;
76115;SDS011;64847;45.778;12.802;2023-08-21T09:20:05;4.20;;;4.00;;
76115;SDS011;64847;45.778;12.802;2023-08-21T09:22:32;4.32;;;4.00;;
76115;SDS011;64847;45.778;12.802;2023-08-21T09:25:05;4.30;;;4.10;;
76115;SDS011;64847;45.778;12.802;2023-08-21T09:27:35;4.60;;;4.30;;
76115;SDS011;64847;45.778;12.802;2023-08-21T09:30:03;4.32;;;4.13;;
76115;SDS011;64847;45.778;12.802;2023-08-21T09:35:31;4.43;;;4.18;;
76115;SDS011;64847;45.778;12.802;2023-08-21T09:37:58;4.35;;;4.15;;
76115;SDS011;64847;45.778;12.802;2023-08-21T09:40:24;4.30;;;4.00;;
76115;SDS011;64847;45.778;12.802;2023-08-21T09:42:53;4.10;;;3.83;;
76115;SDS011;64847;45.778;12.802;2023-08-21T09:45:20;4.30;;;3.88;;
76115;SDS011;64847;45.778;12.802;2023-08-21T09:47:49;4.82;;;4.43;;
76115;SDS011;64847;45.778;12.802;2023-08-21T09:50:15;3.75;;;3.55;;
76115;SDS011;64847;45.778;12.802;2023-08-21T09:52:41;4.18;;;3.88;;
76115;SDS011;64847;45.778;12.802;2023-08-21T09:55:07;4.05;;;3.83;;
76115;SDS011;64847;45.778;12.802;2023-08-21T09:57:36;3.85;;;3.75;;
76115;SDS011;64847;45.778;12.802;2023-08-21T10:00:01;4.38;;;4.07;;
76115;SDS011;64847;45.778;12.802;2023-08-21T10:02:39;4.45;;;4.25;;
76115;SDS011;64847;45.778;12.802;2023-08-21T10:05:05;3.85;;;3.67;;
76115;SDS011;64847;45.778;12.802;2023-08-21T10:07:30;4.32;;;4.00;;
76115;SDS011;64847;45.778;12.802;2023-08-21T10:09:56;4.15;;;3.85;;
76115;SDS011;64847;45.778;12.802;2023-08-21T10:12:21;4.00;;;3.80;;
76115;SDS011;64847;45.778;12.802;2023-08-21T10:14:47;3.88;;;3.65;;
76115;SDS011;64847;45.778;12.802;2023-08-21T10:17:12;4.38;;;4.07;;
76115;SDS011;64847;45.778;12.802;2023-08-21T10:19:38;4.10;;;4.00;;
76115;SDS011;64847;45.778;12.802;2023-08-21T10:22:03;4.53;;;4.30;;
76115;SDS011;64847;45.778;12.802;2023-08-21T10:24:36;3.80;;;3.70;;
76115;SDS011;64847;45.778;12.802;2023-08-21T10:27:02;3.92;;;3.63;;
76115;SDS011;64847;45.778;12.802;2023-08-21T10:29:28;4.10;;;3.90;;
76115;SDS011;64847;45.778;12.802;2023-08-21T10:32:02;3.88;;;3.78;;
76115;SDS011;64847;45.778;12.802;2023-08-21T10:34:36;3.65;;;3.50;;
76115;SDS011;64847;45.778;12.802;2023-08-21T10:39:32;4.15;;;3.90;;
76115;SDS011;64847;45.778;12.802;2023-08-21T10:42:01;3.67;;;3.58;;
76115;SDS011;64847;45.778;12.802;2023-08-21T10:44:35;3.67;;;3.58;;
76115;SDS011;64847;45.778;12.802;2023-08-21T10:50:03;3.92;;;3.72;;
76115;SDS011;64847;45.778;12.802;2023-08-21T10:55:03;4.25;;;4.05;;
76115;SDS011;64847;45.778;12.802;2023-08-21T10:57:29;4.05;;;3.80;;
76115;SDS011;64847;45.778;12.802;2023-08-21T10:59:57;4.00;;;3.80;;
76115;SDS011;64847;45.778;12.802;2023-08-21T11:02:23;3.80;;;3.50;;
76115;SDS011;64847;45.778;12.802;2023-08-21T11:04:50;3.95;;;3.75;;
76115;SDS011;64847;45.778;12.802;2023-08-21T11:07:15;4.07;;;3.80;;
76115;SDS011;64847;45.778;12.802;2023-08-21T11:09:41;3.30;;;3.20;;
76115;SDS011;64847;45.778;12.802;2023-08-21T11:12:08;4.00;;;3.80;;
76115;SDS011;64847;45.778;12.802;2023-08-21T11:14:34;3.90;;;3.80;;
76115;SDS011;64847;45.778;12.802;2023-08-21T11:17:00;3.55;;;3.42;;
76115;SDS011;64847;45.778;12.802;2023-08-21T11:19:26;3.88;;;3.70;;
76115;SDS011;64847;45.778;12.802;2023-08-21T11:21:51;3.47;;;3.33;;
76115;SDS011;64847;45.778;12.802;2023-08-21T11:24:17;3.92;;;3.72;;
76115;SDS011;64847;45.778;12.802;2023-08-21T11:26:42;4.00;;;3.80;;
76115;SDS011;64847;45.778;12.802;2023-08-21T11:29:07;3.78;;;3.58;;
76115;SDS011;64847;45.778;12.802;2023-08-21T11:31:33;3.55;;;3.42;;
76115;SDS011;64847;45.778;12.802;2023-08-21T11:33:58;3.58;;;3.47;;
76115;SDS011;64847;45.778;12.802;2023-08-21T11:36:24;3.60;;;3.50;;
76115;SDS011;64847;45.778;12.802;2023-08-21T11:38:59;4.03;;;3.75;;
76115;SDS011;64847;45.778;12.802;2023-08-21T11:41:25;3.42;;;3.33;;
76115;SDS011;64847;45.778;12.802;2023-08-21T11:43:50;3.70;;;3.40;;
76115;SDS011;64847;45.778;12.802;2023-08-21T11:46:16;3.45;;;3.35;;
76115;SDS011;64847;45.778;12.802;2023-08-21T11:48:43;3.60;;;3.30;;
76115;SDS011;64847;45.778;12.802;2023-08-21T11:51:10;3.78;;;3.58;;
76115;SDS011;64847;45.778;12.802;2023-08-21T11:53:39;3.70;;;3.60;;
76115;SDS011;64847;45.778;12.802;2023-08-21T11:56:16;3.92;;;3.70;;
76115;SDS011;64847;45.778;12.802;2023-08-21T11:58:46;3.53;;;3.42;;
76115;SDS011;64847;45.778;12.802;2023-08-21T12:01:18;3.42;;;3.25;;
76115;SDS011;64847;45.778;12.802;2023-08-21T12:03:44;4.00;;;3.83;;
76115;SDS011;64847;45.778;12.802;2023-08-21T12:06:10;3.95;;;3.83;;
76115;SDS011;64847;45.778;12.802;2023-08-21T12:08:37;3.53;;;3.40;;
76115;SDS011;64847;45.778;12.802;2023-08-21T12:11:03;3.58;;;3.47;;
76115;SDS011;64847;45.778;12.802;2023-08-21T12:13:29;3.42;;;3.33;;
76115;SDS011;64847;45.778;12.802;2023-08-21T12:15:55;3.60;;;3.50;;
76115;SDS011;64847;45.778;12.802;2023-08-21T12:18:20;3.83;;;3.72;;
76115;SDS011;64847;45.778;12.802;2023-08-21T12:20:46;3.80;;;3.67;;
76115;SDS011;64847;45.778;12.802;2023-08-21T12:23:11;3.40;;;3.30;;
76115;SDS011;64847;45.778;12.802;2023-08-21T12:25:36;3.42;;;3.33;;
76115;SDS011;64847;45.778;12.802;2023-08-21T12:28:02;3.40;;;3.30;;
76115;SDS011;64847;45.778;12.802;2023-08-21T12:30:27;3.50;;;3.40;;
76115;SDS011;64847;45.778;12.802;2023-08-21T12:32:53;3.17;;;3.08;;
76115;SDS011;64847;45.778;12.802;2023-08-21T12:35:18;3.25;;;3.15;;
76115;SDS011;64847;45.778;12.802;2023-08-21T12:37:44;3.35;;;3.17;;
76115;SDS011;64847;45.778;12.802;2023-08-21T12:40:09;4.03;;;3.83;;
76115;SDS011;64847;45.778;12.802;2023-08-21T12:42:35;3.63;;;3.47;;
76115;SDS011;64847;45.778;12.802;2023-08-21T12:45:00;3.30;;;3.15;;
76115;SDS011;64847;45.778;12.802;2023-08-21T12:47:26;3.40;;;3.30;;
76115;SDS011;64847;45.778;12.802;2023-08-21T12:49:51;3.30;;;3.20;;
76115;SDS011;64847;45.778;12.802;2023-08-21T12:52:16;3.63;;;3.50;;
76115;SDS011;64847;45.778;12.802;2023-08-21T12:54:42;3.53;;;3.42;;
76115;SDS011;64847;45.778;12.802;2023-08-21T12:57:08;3.65;;;3.15;;
76115;SDS011;64847;45.778;12.802;2023-08-21T12:59:34;3.60;;;3.40;;
76115;SDS011;64847;45.778;12.802;2023-08-21T13:02:00;3.70;;;3.58;;
76115;SDS011;64847;45.778;12.802;2023-08-21T13:04:26;3.45;;;3.35;;
76115;SDS011;64847;45.778;12.802;2023-08-21T13:06:51;3.28;;;3.17;;
76115;SDS011;64847;45.778;12.802;2023-08-21T13:09:17;3.88;;;3.67;;
76115;SDS011;64847;45.778;12.802;2023-08-21T13:11:42;3.28;;;3.10;;
76115;SDS011;64847;45.778;12.802;2023-08-21T13:14:08;3.58;;;3.40;;
76115;SDS011;64847;45.778;12.802;2023-08-21T13:16:33;3.70;;;3.50;;
76115;SDS011;64847;45.778;12.802;2023-08-21T13:18:58;3.97;;;3.88;;
76115;SDS011;64847;45.778;12.802;2023-08-21T13:21:24;3.60;;;3.50;;
76115;SDS011;64847;45.778;12.802;2023-08-21T13:23:49;5.70;;;3.80;;
76115;SDS011;64847;45.778;12.802;2023-08-21T13:26:15;3.60;;;3.40;;
76115;SDS011;64847;45.778;12.802;2023-08-21T13:28:40;3.92;;;3.63;;
76115;SDS011;64847;45.778;12.802;2023-08-21T13:31:06;3.65;;;3.42;;
76115;SDS011;64847;45.778;12.802;2023-08-21T13:33:43;4.20;;;3.90;;
76115;SDS011;64847;45.778;12.802;2023-08-21T13:36:11;3.65;;;3.45;;
76115;SDS011;64847;45.778;12.802;2023-08-21T13:38:37;3.65;;;3.45;;
76115;SDS011;64847;45.778;12.802;2023-08-21T13:41:03;3.80;;;3.50;;
76115;SDS011;64847;45.778;12.802;2023-08-21T13:43:28;3.17;;;3.08;;
76115;SDS011;64847;45.778;12.802;2023-08-21T13:45:54;3.78;;;3.60;;
76115;SDS011;64847;45.778;12.802;2023-08-21T13:48:19;3.70;;;3.50;;
76115;SDS011;64847;45.778;12.802;2023-08-21T13:50:45;3.83;;;3.63;;
76115;SDS011;64847;45.778;12.802;2023-08-21T13:53:10;3.53;;;3.42;;
76115;SDS011;64847;45.778;12.802;2023-08-21T13:55:36;3.75;;;3.45;;
76115;SDS011;64847;45.778;12.802;2023-08-21T13:58:01;3.60;;;3.40;;
76115;SDS011;64847;45.778;12.802;2023-08-21T14:00:27;3.70;;;3.50;;
76115;SDS011;64847;45.778;12.802;2023-08-21T14:02:53;3.67;;;3.47;;
76115;SDS011;64847;45.778;12.802;2023-08-21T14:05:18;3.50;;;3.40;;
76115;SDS011;64847;45.778;12.802;2023-08-21T14:07:44;3.38;;;3.28;;
76115;SDS011;64847;45.778;12.802;2023-08-21T14:10:09;4.00;;;3.70;;
76115;SDS011;64847;45.778;12.802;2023-08-21T14:12:35;3.90;;;3.70;;
76115;SDS011;64847;45.778;12.802;2023-08-21T14:15:00;4.15;;;3.95;;
76115;SDS011;64847;45.778;12.802;2023-08-21T14:17:26;4.43;;;4.07;;
76115;SDS011;64847;45.778;12.802;2023-08-21T14:19:52;3.72;;;3.53;;
76115;SDS011;64847;45.778;12.802;2023-08-21T14:22:18;4.10;;;3.72;;
76115;SDS011;64847;45.778;12.802;2023-08-21T14:24:43;4.07;;;3.88;;
76115;SDS011;64847;45.778;12.802;2023-08-21T14:27:09;3.85;;;3.53;;
76115;SDS011;64847;45.778;12.802;2023-08-21T14:29:34;3.83;;;3.63;;
76115;SDS011;64847;45.778;12.802;2023-08-21T14:32:00;3.92;;;3.72;;
76115;SDS011;64847;45.778;12.802;2023-08-21T14:34:26;3.60;;;3.40;;
76115;SDS011;64847;45.778;12.802;2023-08-21T14:36:52;3.60;;;3.47;;
76115;SDS011;64847;45.778;12.802;2023-08-21T14:39:19;3.38;;;3.28;;